createdAt,value
2023-01-17T00:00:17.338Z,946.04
2023-01-17T00:01:17.261Z,946.04
2023-01-17T00:02:17.335Z,946.04
2023-01-17T00:03:17.259Z,946.06
2023-01-17T00:04:17.289Z,946.01
2023-01-17T00:05:17.251Z,946.03
2023-01-17T00:06:17.228Z,946.00
2023-01-17T00:07:17.197Z,946.07
2023-01-17T00:08:17.207Z,946.02
2023-01-17T00:09:17.161Z,946.02
2023-01-17T00:10:17.237Z,946.05
2023-01-17T00:11:17.147Z,946.06
2023-01-17T00:12:17.166Z,946.04
2023-01-17T00:13:17.123Z,946.02
2023-01-17T00:14:17.151Z,945.98
2023-01-17T00:15:17.105Z,946.04
2023-01-17T00:16:17.143Z,946.10
2023-01-17T00:17:17.095Z,946.08
2023-01-17T00:18:17.082Z,946.12
2023-01-17T00:19:17.038Z,946.15
2023-01-17T00:20:19.322Z,946.14
2023-01-17T00:21:17.011Z,946.19
2023-01-17T00:22:17.058Z,946.19
2023-01-17T00:23:17.013Z,946.13
2023-01-17T00:24:17.019Z,946.09
2023-01-17T00:25:16.960Z,946.11
2023-01-17T00:26:16.997Z,946.12
2023-01-17T00:27:16.949Z,946.12
2023-01-17T00:28:16.967Z,946.13
2023-01-17T00:29:16.909Z,946.14
2023-01-17T00:30:16.917Z,946.13
2023-01-17T00:31:16.991Z,946.16
2023-01-17T00:32:16.905Z,946.14
2023-01-17T00:33:16.878Z,946.15
2023-01-17T00:34:16.873Z,946.16
2023-01-17T00:35:16.833Z,946.21
2023-01-17T00:36:16.854Z,946.20
2023-01-17T00:37:16.813Z,946.15
2023-01-17T00:38:16.881Z,946.12
2023-01-17T00:39:16.783Z,946.11
2023-01-17T00:40:16.812Z,946.13
2023-01-17T00:41:16.765Z,946.17
2023-01-17T00:42:16.761Z,946.15
2023-01-17T00:43:16.747Z,946.12
2023-01-17T00:44:16.767Z,946.12
2023-01-17T00:45:16.719Z,946.07
2023-01-17T00:46:16.750Z,946.11
2023-01-17T00:47:16.683Z,946.06
2023-01-17T00:48:16.696Z,946.07
2023-01-17T00:49:16.695Z,946.09
2023-01-17T00:50:16.664Z,946.04
2023-01-17T00:51:16.646Z,946.05
2023-01-17T00:52:16.662Z,946.03
2023-01-17T00:53:16.625Z,946.06
2023-01-17T00:54:18.930Z,946.05
2023-01-17T00:55:16.621Z,945.99
2023-01-17T00:56:16.624Z,945.98
2023-01-17T00:57:16.562Z,945.96
2023-01-17T00:58:16.561Z,945.93
2023-01-17T00:59:16.576Z,945.94
2023-01-17T01:00:16.590Z,945.97
2023-01-17T01:01:16.585Z,945.92
2023-01-17T01:02:16.659Z,945.92
2023-01-17T01:03:16.522Z,945.90
2023-01-17T01:04:16.508Z,945.81
2023-01-17T01:05:16.467Z,945.85
2023-01-17T01:06:16.521Z,945.87
2023-01-17T01:07:16.435Z,945.90
2023-01-17T01:08:16.444Z,945.91
2023-01-17T01:09:16.413Z,945.94
2023-01-17T01:10:16.413Z,945.98
2023-01-17T01:11:16.445Z,945.98
2023-01-17T01:12:16.424Z,946.02
2023-01-17T01:13:16.362Z,945.99
2023-01-17T01:14:16.381Z,945.99
2023-01-17T01:15:16.332Z,946.03
2023-01-17T01:16:16.376Z,946.02
2023-01-17T01:17:16.357Z,945.99
2023-01-17T01:18:16.309Z,946.02
2023-01-17T01:19:16.287Z,945.96
2023-01-17T01:20:16.289Z,945.94
2023-01-17T01:21:16.247Z,945.97
2023-01-17T01:22:16.268Z,945.93
2023-01-17T01:23:16.256Z,945.91
2023-01-17T01:24:16.239Z,945.91
2023-01-17T01:25:16.221Z,945.91
2023-01-17T01:26:16.205Z,945.94
2023-01-17T01:27:16.184Z,945.92
2023-01-17T01:28:16.215Z,945.91
2023-01-17T01:29:16.163Z,945.96
2023-01-17T01:30:16.162Z,945.98
2023-01-17T01:31:16.144Z,945.89
2023-01-17T01:32:16.164Z,945.85
2023-01-17T01:33:16.121Z,945.84
2023-01-17T01:34:16.138Z,945.82
2023-01-17T01:35:16.085Z,945.85
2023-01-17T01:36:16.085Z,945.84
2023-01-17T01:37:16.054Z,945.85
2023-01-17T01:38:16.076Z,945.86
2023-01-17T01:39:16.058Z,945.87
2023-01-17T01:40:16.052Z,945.90
2023-01-17T01:41:16.026Z,945.94
2023-01-17T01:42:16.024Z,945.96
2023-01-17T01:43:15.981Z,945.96
2023-01-17T01:44:16.025Z,946.00
2023-01-17T01:45:15.943Z,946.00
2023-01-17T01:46:15.968Z,946.06
2023-01-17T01:47:23.010Z,946.07
2023-01-17T01:48:15.946Z,946.12
2023-01-17T01:49:15.889Z,945.97
2023-01-17T01:50:15.919Z,946.00
2023-01-17T01:51:15.860Z,945.99
2023-01-17T01:52:15.899Z,946.03
2023-01-17T01:53:15.856Z,946.00
2023-01-17T01:54:15.896Z,945.97
2023-01-17T01:55:15.818Z,946.02
2023-01-17T01:56:15.842Z,945.96
2023-01-17T01:57:15.788Z,945.91
2023-01-17T01:58:51.514Z,945.95
2023-01-17T01:59:15.801Z,945.94
2023-01-17T02:00:15.782Z,945.90
2023-01-17T02:01:15.825Z,946.02
2023-01-17T02:02:15.732Z,945.98
2023-01-17T02:03:15.740Z,945.84
2023-01-17T02:04:15.700Z,945.89
2023-01-17T02:05:15.701Z,945.85
2023-01-17T02:06:15.690Z,945.84
2023-01-17T02:07:15.716Z,945.88
2023-01-17T02:08:15.650Z,945.91
2023-01-17T02:09:15.661Z,945.85
2023-01-17T02:10:15.626Z,945.83
2023-01-17T02:11:15.657Z,945.84
2023-01-17T02:12:15.594Z,945.86
2023-01-17T02:13:15.608Z,945.87
2023-01-17T02:14:15.576Z,945.80
2023-01-17T02:15:15.625Z,945.82
2023-01-17T02:16:15.584Z,945.79
2023-01-17T02:17:15.559Z,945.79
2023-01-17T02:18:15.514Z,945.76
2023-01-17T02:19:15.522Z,945.74
2023-01-17T02:20:15.500Z,945.80
2023-01-17T02:21:15.545Z,945.80
2023-01-17T02:22:15.490Z,945.86
2023-01-17T02:23:15.484Z,945.81
2023-01-17T02:24:15.440Z,945.85
2023-01-17T02:25:15.457Z,945.76
2023-01-17T02:26:15.416Z,945.75
2023-01-17T02:27:15.456Z,945.74
2023-01-17T02:28:15.409Z,945.75
2023-01-17T02:29:15.397Z,945.83
2023-01-17T02:30:15.366Z,945.78
2023-01-17T02:31:15.413Z,945.81
2023-01-17T02:32:15.361Z,945.79
2023-01-17T02:33:15.391Z,945.69
2023-01-17T02:34:15.332Z,945.67
2023-01-17T02:35:15.330Z,945.68
2023-01-17T02:36:15.304Z,945.68
2023-01-17T02:37:15.389Z,945.75
2023-01-17T02:38:15.262Z,945.64
2023-01-17T02:39:15.300Z,945.73
2023-01-17T02:40:15.233Z,945.70
2023-01-17T02:41:15.971Z,945.71
2023-01-17T02:42:16.149Z,945.66
2023-01-17T02:43:15.239Z,945.71
2023-01-17T02:44:15.211Z,945.74
2023-01-17T02:45:15.649Z,945.69
2023-01-17T02:46:15.203Z,945.78
2023-01-17T02:47:15.175Z,945.72
2023-01-17T02:48:15.127Z,945.80
2023-01-17T02:49:15.165Z,945.72
2023-01-17T02:50:15.110Z,945.73
2023-01-17T02:51:15.134Z,945.72
2023-01-17T02:52:15.114Z,945.70
2023-01-17T02:53:15.083Z,945.68
2023-01-17T02:54:15.082Z,945.71
2023-01-17T02:55:15.102Z,945.77
2023-01-17T02:56:15.088Z,945.75
2023-01-17T02:57:15.048Z,945.73
2023-01-17T02:58:15.030Z,945.74
2023-01-17T02:59:15.010Z,945.79
2023-01-17T03:00:15.002Z,945.75
2023-01-17T03:01:15.116Z,945.72
2023-01-17T03:02:15.083Z,945.75
2023-01-17T03:03:15.102Z,945.68
2023-01-17T03:04:14.930Z,945.64
2023-01-17T03:05:14.927Z,945.61
2023-01-17T03:06:14.925Z,945.58
2023-01-17T03:07:14.953Z,945.55
2023-01-17T03:08:14.874Z,945.59
2023-01-17T03:09:14.885Z,945.56
2023-01-17T03:10:14.848Z,945.61
2023-01-17T03:11:14.859Z,945.65
2023-01-17T03:12:14.823Z,945.65
2023-01-17T03:13:14.867Z,945.68
2023-01-17T03:14:14.833Z,945.73
2023-01-17T03:15:14.802Z,945.73
2023-01-17T03:16:14.791Z,945.70
2023-01-17T03:17:14.994Z,945.69
2023-01-17T03:18:14.753Z,945.72
2023-01-17T03:19:14.780Z,945.71
2023-01-17T03:20:14.779Z,945.68
2023-01-17T03:21:14.728Z,945.73
2023-01-17T03:22:14.734Z,945.66
2023-01-17T03:23:14.733Z,945.64
2023-01-17T03:24:14.665Z,945.62
2023-01-17T03:25:14.689Z,945.62
2023-01-17T03:26:14.674Z,945.58
2023-01-17T03:27:14.699Z,945.64
2023-01-17T03:28:14.614Z,945.59
2023-01-17T03:29:14.640Z,945.60
2023-01-17T03:30:14.661Z,945.64
2023-01-17T03:31:14.621Z,945.61
2023-01-17T03:32:14.619Z,945.57
2023-01-17T03:33:14.576Z,945.54
2023-01-17T03:34:14.544Z,945.49
2023-01-17T03:35:14.599Z,945.48
2023-01-17T03:36:14.539Z,945.45
2023-01-17T03:37:14.529Z,945.42
2023-01-17T03:38:14.488Z,945.38
2023-01-17T03:39:14.488Z,945.34
2023-01-17T03:40:14.468Z,945.34
2023-01-17T03:41:14.465Z,945.38
2023-01-17T03:42:14.469Z,945.40
2023-01-17T03:43:14.451Z,945.40
2023-01-17T03:44:14.404Z,945.38
2023-01-17T03:45:14.413Z,945.37
2023-01-17T03:46:14.395Z,945.34
2023-01-17T03:47:14.402Z,945.37
2023-01-17T03:48:14.387Z,945.30
2023-01-17T03:49:14.375Z,945.30
2023-01-17T03:50:14.337Z,945.35
2023-01-17T03:51:14.350Z,945.30
2023-01-17T03:52:14.319Z,945.31
2023-01-17T03:53:14.326Z,945.32
2023-01-17T03:54:14.311Z,945.28
2023-01-17T03:55:14.298Z,945.37
2023-01-17T03:56:14.406Z,945.37
2023-01-17T03:57:14.248Z,945.36
2023-01-17T03:58:14.248Z,945.33
2023-01-17T03:59:14.245Z,945.32
2023-01-17T04:00:15.210Z,945.36
2023-01-17T04:01:14.299Z,945.37
2023-01-17T04:02:14.415Z,945.35
2023-01-17T04:03:14.168Z,945.36
2023-01-17T04:04:14.186Z,945.36
2023-01-17T04:05:14.201Z,945.37
2023-01-17T04:06:14.150Z,945.35
2023-01-17T04:07:14.120Z,945.44
2023-01-17T04:08:14.111Z,945.31
2023-01-17T04:09:14.081Z,945.35
2023-01-17T04:10:14.176Z,945.31
2023-01-17T04:11:14.103Z,945.24
2023-01-17T04:12:14.089Z,945.27
2023-01-17T04:13:14.036Z,945.26
2023-01-17T04:14:14.054Z,945.32
2023-01-17T04:15:14.008Z,945.30
2023-01-17T04:16:14.087Z,945.23
2023-01-17T04:17:14.046Z,945.23
2023-01-17T04:18:14.001Z,945.16
2023-01-17T04:19:14.026Z,945.15
2023-01-17T04:20:14.029Z,945.18
2023-01-17T04:21:13.940Z,945.15
2023-01-17T04:22:13.944Z,945.15
2023-01-17T04:23:13.911Z,945.14
2023-01-17T04:24:13.965Z,945.14
2023-01-17T04:25:13.883Z,945.16
2023-01-17T04:26:13.913Z,945.12
2023-01-17T04:27:13.919Z,945.15
2023-01-17T04:28:13.858Z,945.18
2023-01-17T04:29:13.841Z,945.21
2023-01-17T04:30:13.854Z,945.12
2023-01-17T04:31:13.928Z,945.21
2023-01-17T04:32:13.840Z,945.23
2023-01-17T04:33:13.783Z,945.28
2023-01-17T04:34:13.838Z,945.21
2023-01-17T04:35:13.754Z,945.26
2023-01-17T04:36:13.772Z,945.20
2023-01-17T04:37:13.727Z,945.16
2023-01-17T04:38:13.764Z,945.17
2023-01-17T04:39:13.703Z,945.17
2023-01-17T04:40:13.792Z,945.11
2023-01-17T04:41:13.670Z,945.07
2023-01-17T04:42:13.680Z,945.04
2023-01-17T04:43:13.671Z,945.04
2023-01-17T04:44:13.679Z,945.01
2023-01-17T04:45:13.622Z,944.98
2023-01-17T04:46:13.700Z,945.06
2023-01-17T04:47:13.599Z,945.06
2023-01-17T04:48:13.624Z,945.07
2023-01-17T04:49:13.576Z,945.07
2023-01-17T04:50:13.624Z,945.10
2023-01-17T04:51:13.550Z,945.07
2023-01-17T04:52:13.571Z,945.13
2023-01-17T04:53:13.522Z,945.14
2023-01-17T04:54:13.599Z,945.14
2023-01-17T04:55:13.500Z,945.18
2023-01-17T04:56:13.561Z,945.19
2023-01-17T04:57:13.604Z,945.17
2023-01-17T04:58:13.515Z,945.15
2023-01-17T04:59:13.473Z,945.18
2023-01-17T05:00:13.476Z,945.08
2023-01-17T05:01:13.490Z,945.03
2023-01-17T05:02:13.464Z,945.00
2023-01-17T05:03:13.394Z,944.97
2023-01-17T05:04:13.397Z,944.89
2023-01-17T05:05:13.380Z,944.91
2023-01-17T05:06:13.418Z,944.87
2023-01-17T05:07:13.352Z,944.90
2023-01-17T05:08:13.355Z,944.90
2023-01-17T05:09:13.325Z,944.89
2023-01-17T05:10:13.334Z,944.91
2023-01-17T05:11:13.296Z,944.87
2023-01-17T05:12:13.324Z,944.89
2023-01-17T05:13:13.262Z,944.90
2023-01-17T05:14:13.292Z,944.90
2023-01-17T05:15:13.253Z,944.92
2023-01-17T05:16:13.271Z,944.92
2023-01-17T05:17:13.211Z,944.93
2023-01-17T05:18:13.251Z,944.91
2023-01-17T05:19:13.219Z,944.92
2023-01-17T05:20:13.195Z,944.92
2023-01-17T05:21:13.162Z,944.86
2023-01-17T05:22:13.177Z,944.90
2023-01-17T05:23:13.140Z,944.88
2023-01-17T05:24:13.147Z,944.91
2023-01-17T05:25:13.133Z,944.89
2023-01-17T05:26:13.140Z,944.88
2023-01-17T05:27:13.127Z,944.85
2023-01-17T05:28:13.123Z,944.85
2023-01-17T05:29:13.059Z,944.90
2023-01-17T05:30:13.076Z,944.89
2023-01-17T05:31:13.127Z,944.91
2023-01-17T05:32:13.083Z,944.91
2023-01-17T05:33:13.028Z,944.95
2023-01-17T05:34:13.021Z,944.96
2023-01-17T05:35:12.980Z,944.96
2023-01-17T05:36:13.154Z,944.95
2023-01-17T05:37:13.005Z,944.93
2023-01-17T05:38:12.988Z,944.86
2023-01-17T05:39:12.928Z,944.90
2023-01-17T05:40:12.937Z,944.88
2023-01-17T05:41:12.907Z,944.87
2023-01-17T05:42:12.939Z,944.87
2023-01-17T05:43:12.878Z,944.87
2023-01-17T05:44:12.874Z,944.83
2023-01-17T05:45:12.865Z,944.83
2023-01-17T05:46:12.938Z,944.83
2023-01-17T05:47:12.832Z,944.83
2023-01-17T05:48:12.883Z,944.82
2023-01-17T05:49:12.806Z,944.78
2023-01-17T05:50:12.808Z,944.77
2023-01-17T05:51:12.792Z,944.72
2023-01-17T05:52:12.795Z,944.74
2023-01-17T05:53:12.767Z,944.73
2023-01-17T05:54:12.761Z,944.72
2023-01-17T05:55:12.727Z,944.72
2023-01-17T05:56:12.826Z,944.74
2023-01-17T05:57:12.732Z,944.66
2023-01-17T05:58:12.717Z,944.64
2023-01-17T05:59:14.345Z,944.66
2023-01-17T06:00:12.685Z,944.65
2023-01-17T06:01:12.691Z,944.63
2023-01-17T06:02:12.731Z,944.61
2023-01-17T06:03:12.642Z,944.59
2023-01-17T06:04:12.677Z,944.58
2023-01-17T06:05:12.612Z,944.54
2023-01-17T06:06:12.606Z,944.54
2023-01-17T06:07:12.578Z,944.53
2023-01-17T06:08:12.602Z,944.55
2023-01-17T06:09:12.549Z,944.57
2023-01-17T06:10:12.586Z,944.58
2023-01-17T06:11:12.532Z,944.56
2023-01-17T06:12:12.527Z,944.54
2023-01-17T06:13:12.501Z,944.53
2023-01-17T06:14:12.498Z,944.52
2023-01-17T06:15:12.475Z,944.51
2023-01-17T06:16:12.623Z,944.52
2023-01-17T06:17:12.444Z,944.55
2023-01-17T06:18:12.468Z,944.52
2023-01-17T06:19:12.414Z,944.52
2023-01-17T06:20:12.465Z,944.52
2023-01-17T06:21:12.420Z,944.51
2023-01-17T06:22:12.417Z,944.51
2023-01-17T06:23:12.386Z,944.51
2023-01-17T06:24:12.388Z,944.54
2023-01-17T06:25:12.361Z,944.56
2023-01-17T06:26:12.382Z,944.53
2023-01-17T06:27:12.312Z,944.57
2023-01-17T06:28:12.366Z,944.50
2023-01-17T06:29:12.288Z,944.47
2023-01-17T06:30:12.323Z,944.50
2023-01-17T06:31:12.333Z,944.48
2023-01-17T06:32:12.262Z,944.43
2023-01-17T06:33:12.234Z,944.43
2023-01-17T06:34:12.197Z,944.46
2023-01-17T06:35:12.225Z,944.46
2023-01-17T06:36:12.227Z,944.40
2023-01-17T06:37:12.167Z,944.45
2023-01-17T06:38:12.138Z,944.48
2023-01-17T06:39:14.863Z,944.48
2023-01-17T06:40:12.176Z,944.52
2023-01-17T06:41:12.110Z,944.51
2023-01-17T06:42:12.148Z,944.47
2023-01-17T06:43:12.061Z,944.44
2023-01-17T06:44:12.133Z,944.40
2023-01-17T06:45:12.064Z,944.36
2023-01-17T06:46:12.075Z,944.37
2023-01-17T06:47:11.999Z,944.29
2023-01-17T06:48:12.047Z,944.30
2023-01-17T06:49:11.987Z,944.29
2023-01-17T06:50:11.994Z,944.25
2023-01-17T06:51:12.006Z,944.26
2023-01-17T06:52:11.977Z,944.25
2023-01-17T06:53:11.976Z,944.28
2023-01-17T06:54:11.941Z,944.27
2023-01-17T06:55:11.904Z,944.27
2023-01-17T06:56:11.915Z,944.25
2023-01-17T06:57:11.880Z,944.24
2023-01-17T06:58:11.924Z,944.23
2023-01-17T06:59:11.862Z,944.24
2023-01-17T07:00:11.860Z,944.22
2023-01-17T07:01:11.957Z,944.22
2023-01-17T07:02:11.842Z,944.20
2023-01-17T07:03:11.799Z,944.14
2023-01-17T07:04:11.881Z,944.14
2023-01-17T07:05:11.775Z,944.12
2023-01-17T07:06:11.793Z,944.06
2023-01-17T07:07:11.747Z,944.02
2023-01-17T07:08:11.761Z,943.99
2023-01-17T07:09:11.734Z,943.96
2023-01-17T07:10:11.758Z,943.92
2023-01-17T07:11:11.702Z,943.88
2023-01-17T07:12:11.818Z,943.92
2023-01-17T07:13:11.717Z,943.92
2023-01-17T07:14:11.674Z,943.90
2023-01-17T07:15:11.651Z,943.90
2023-01-17T07:16:11.662Z,943.88
2023-01-17T07:17:11.620Z,943.79
2023-01-17T07:18:11.631Z,943.79
2023-01-17T07:19:11.912Z,943.76
2023-01-17T07:20:11.599Z,943.71
2023-01-17T07:21:11.591Z,943.70
2023-01-17T07:22:11.578Z,943.67
2023-01-17T07:23:11.560Z,943.67
2023-01-17T07:24:11.587Z,943.69
2023-01-17T07:25:11.524Z,943.74
2023-01-17T07:26:11.536Z,943.77
2023-01-17T07:27:11.495Z,943.83
2023-01-17T07:28:11.526Z,943.85
2023-01-17T07:29:11.496Z,943.91
2023-01-17T07:30:11.474Z,943.89
2023-01-17T07:31:11.476Z,943.93
2023-01-17T07:32:11.457Z,943.96
2023-01-17T07:33:11.421Z,943.96
2023-01-17T07:34:11.470Z,943.97
2023-01-17T07:35:11.420Z,943.99
2023-01-17T07:36:11.399Z,944.02
2023-01-17T07:37:13.062Z,943.99
2023-01-17T07:38:11.420Z,943.97
2023-01-17T07:39:11.373Z,944.01
2023-01-17T07:40:11.362Z,943.94
2023-01-17T07:41:11.346Z,943.94
2023-01-17T07:42:11.542Z,943.92
2023-01-17T07:43:11.286Z,943.90
2023-01-17T07:44:11.305Z,943.92
2023-01-17T07:45:11.317Z,943.91
2023-01-17T07:46:11.298Z,943.90
2023-01-17T07:47:11.274Z,943.86
2023-01-17T07:48:18.320Z,943.83
2023-01-17T07:49:12.024Z,943.85
2023-01-17T07:50:11.795Z,943.77
2023-01-17T07:51:11.230Z,943.80
2023-01-17T07:52:11.569Z,943.76
2023-01-17T07:53:11.240Z,943.77
2023-01-17T07:54:11.179Z,943.78
2023-01-17T07:55:11.252Z,943.78
2023-01-17T07:56:11.227Z,943.76
2023-01-17T07:57:11.172Z,943.78
2023-01-17T07:58:11.121Z,943.83
2023-01-17T07:59:11.156Z,943.82
2023-01-17T08:00:11.098Z,943.82
2023-01-17T08:01:11.231Z,943.73
2023-01-17T08:02:11.227Z,943.74
2023-01-17T08:03:11.082Z,943.71
2023-01-17T08:04:11.083Z,943.71
2023-01-17T08:05:11.106Z,943.64
2023-01-17T08:06:11.009Z,943.60
2023-01-17T08:07:10.981Z,943.61
2023-01-17T08:08:11.001Z,943.65
2023-01-17T08:09:10.969Z,943.64
2023-01-17T08:10:10.939Z,943.60
2023-01-17T08:11:11.031Z,943.62
2023-01-17T08:12:10.957Z,943.58
2023-01-17T08:13:10.980Z,943.54
2023-01-17T08:14:10.889Z,943.57
2023-01-17T08:15:11.028Z,943.52
2023-01-17T08:16:10.922Z,943.50
2023-01-17T08:17:10.901Z,943.41
2023-01-17T08:18:10.932Z,943.47
2023-01-17T08:19:10.853Z,943.42
2023-01-17T08:20:10.905Z,943.41
2023-01-17T08:21:10.992Z,943.40
2023-01-17T08:22:10.803Z,943.43
2023-01-17T08:23:10.844Z,943.43
2023-01-17T08:24:10.773Z,943.41
2023-01-17T08:25:10.852Z,943.41
2023-01-17T08:26:10.775Z,943.44
2023-01-17T08:27:11.788Z,943.42
2023-01-17T08:28:10.869Z,943.42
2023-01-17T08:29:10.736Z,943.44
2023-01-17T08:30:10.718Z,943.41
2023-01-17T08:31:10.843Z,943.40
2023-01-17T08:32:10.666Z,943.40
2023-01-17T08:33:10.754Z,943.36
2023-01-17T08:34:10.638Z,943.29
2023-01-17T08:35:10.644Z,943.23
2023-01-17T08:36:10.660Z,943.17
2023-01-17T08:37:10.682Z,943.18
2023-01-17T08:38:10.690Z,943.13
2023-01-17T08:39:10.645Z,943.08
2023-01-17T08:40:10.569Z,943.05
2023-01-17T08:41:10.574Z,943.01
2023-01-17T08:42:10.565Z,942.97
2023-01-17T08:43:10.561Z,942.91
2023-01-17T08:44:10.612Z,942.90
2023-01-17T08:45:10.499Z,942.88
2023-01-17T08:46:10.569Z,942.80
2023-01-17T08:47:10.490Z,942.77
2023-01-17T08:48:10.478Z,942.69
2023-01-17T08:49:10.484Z,942.69
2023-01-17T08:50:10.501Z,942.68
2023-01-17T08:51:10.453Z,942.66
2023-01-17T08:52:10.556Z,942.69
2023-01-17T08:53:10.420Z,942.71
2023-01-17T08:54:10.437Z,942.71
2023-01-17T08:55:10.451Z,942.73
2023-01-17T08:56:10.442Z,942.68
2023-01-17T08:57:10.366Z,942.68
2023-01-17T08:58:10.339Z,942.58
2023-01-17T08:59:10.340Z,942.63
2023-01-17T09:00:10.324Z,942.65
2023-01-17T09:01:10.478Z,942.59
2023-01-17T09:02:10.330Z,942.59
2023-01-17T09:03:10.284Z,942.60
2023-01-17T09:04:10.336Z,942.66
2023-01-17T09:05:10.289Z,942.65
2023-01-17T09:06:10.262Z,942.63
2023-01-17T09:07:10.235Z,942.60
2023-01-17T09:08:10.206Z,942.65
2023-01-17T09:09:10.241Z,942.57
2023-01-17T09:10:10.203Z,942.60
2023-01-17T09:11:10.217Z,942.58
2023-01-17T09:12:10.166Z,942.54
2023-01-17T09:13:10.183Z,942.51
2023-01-17T09:14:10.142Z,942.40
2023-01-17T09:15:10.167Z,942.40
2023-01-17T09:16:10.154Z,942.37
2023-01-17T09:17:10.145Z,942.38
2023-01-17T09:18:10.103Z,942.30
2023-01-17T09:19:10.089Z,942.35
2023-01-17T09:20:10.085Z,942.27
2023-01-17T09:21:10.081Z,942.21
2023-01-17T09:22:10.029Z,942.25
2023-01-17T09:23:10.047Z,942.30
2023-01-17T09:24:10.007Z,942.27
2023-01-17T09:25:10.012Z,942.27
2023-01-17T09:26:10.038Z,942.28
2023-01-17T09:27:10.015Z,942.31
2023-01-17T09:28:09.955Z,942.28
2023-01-17T09:29:09.978Z,942.30
2023-01-17T09:30:09.925Z,942.23
2023-01-17T09:31:10.044Z,942.27
2023-01-17T09:32:09.954Z,942.32
2023-01-17T09:33:09.903Z,942.34
2023-01-17T09:34:09.895Z,942.32
2023-01-17T09:35:09.908Z,942.36
2023-01-17T09:36:09.867Z,942.36
2023-01-17T09:37:09.882Z,942.32
2023-01-17T09:38:09.991Z,942.29
2023-01-17T09:39:09.849Z,942.28
2023-01-17T09:40:09.850Z,942.31
2023-01-17T09:41:09.808Z,942.29
2023-01-17T09:42:09.793Z,942.30
2023-01-17T09:43:09.837Z,942.24
2023-01-17T09:44:09.770Z,942.22
2023-01-17T09:45:09.796Z,942.22
2023-01-17T09:46:09.760Z,942.23
2023-01-17T09:47:09.772Z,942.24
2023-01-17T09:48:09.723Z,942.23
2023-01-17T09:49:09.714Z,942.17
2023-01-17T09:50:09.693Z,942.13
2023-01-17T09:51:09.719Z,942.08
2023-01-17T09:52:09.656Z,942.11
2023-01-17T09:53:09.681Z,942.08
2023-01-17T09:54:09.634Z,942.07
2023-01-17T09:55:09.658Z,942.07
2023-01-17T09:56:09.640Z,942.10
2023-01-17T09:57:09.647Z,942.09
2023-01-17T09:58:09.596Z,942.02
2023-01-17T09:59:09.609Z,942.02
2023-01-17T10:00:09.610Z,941.99
2023-01-17T10:01:09.623Z,942.03
2023-01-17T10:02:09.686Z,942.02
2023-01-17T10:03:09.759Z,942.00
2023-01-17T10:04:09.575Z,941.99
2023-01-17T10:05:09.572Z,941.91
2023-01-17T10:06:09.506Z,941.94
2023-01-17T10:07:09.512Z,941.91
2023-01-17T10:08:09.526Z,941.96
2023-01-17T10:09:09.497Z,941.92
2023-01-17T10:10:09.516Z,941.89
2023-01-17T10:11:09.451Z,941.88
2023-01-17T10:12:09.498Z,941.88
2023-01-17T10:13:09.411Z,941.90
2023-01-17T10:14:09.377Z,941.89
2023-01-17T10:15:09.417Z,941.87
2023-01-17T10:16:09.349Z,941.88
2023-01-17T10:17:09.408Z,941.83
2023-01-17T10:18:14.542Z,941.85
2023-01-17T10:19:10.375Z,941.81
2023-01-17T10:20:09.295Z,941.86
2023-01-17T10:21:09.304Z,941.83
2023-01-17T10:22:09.285Z,941.80
2023-01-17T10:23:09.354Z,941.82
2023-01-17T10:24:09.272Z,941.85
2023-01-17T10:25:09.307Z,941.77
2023-01-17T10:26:09.221Z,941.78
2023-01-17T10:27:09.226Z,941.75
2023-01-17T10:28:09.193Z,941.73
2023-01-17T10:29:09.238Z,941.75
2023-01-17T10:30:09.180Z,941.75
2023-01-17T10:31:09.267Z,941.76
2023-01-17T10:32:09.138Z,941.68
2023-01-17T10:33:09.148Z,941.64
2023-01-17T10:34:09.108Z,941.70
2023-01-17T10:35:09.158Z,941.67
2023-01-17T10:36:09.079Z,941.70
2023-01-17T10:37:09.097Z,941.72
2023-01-17T10:38:09.111Z,941.73
2023-01-17T10:39:09.055Z,941.70
2023-01-17T10:40:09.025Z,941.69
2023-01-17T10:41:09.063Z,941.74
2023-01-17T10:42:09.011Z,941.69
2023-01-17T10:43:09.018Z,941.72
2023-01-17T10:44:09.015Z,941.69
2023-01-17T10:45:09.355Z,941.70
2023-01-17T10:46:08.975Z,941.67
2023-01-17T10:47:08.970Z,941.65
2023-01-17T10:48:08.921Z,941.65
2023-01-17T10:49:08.949Z,941.64
2023-01-17T10:50:08.928Z,941.66
2023-01-17T10:51:08.920Z,941.66
2023-01-17T10:52:08.897Z,941.65
2023-01-17T10:53:08.888Z,941.66
2023-01-17T10:54:08.838Z,941.68
2023-01-17T10:55:08.858Z,941.64
2023-01-17T10:56:08.847Z,941.62
2023-01-17T10:57:08.855Z,941.65
2023-01-17T10:58:08.804Z,941.67
2023-01-17T10:59:08.815Z,941.58
2023-01-17T11:00:08.765Z,941.65
2023-01-17T11:01:08.913Z,941.60
2023-01-17T11:02:08.813Z,941.56
2023-01-17T11:03:08.849Z,941.52
2023-01-17T11:04:08.731Z,941.51
2023-01-17T11:05:08.741Z,941.51
2023-01-17T11:06:08.722Z,941.47
2023-01-17T11:07:08.722Z,941.43
2023-01-17T11:08:08.707Z,941.36
2023-01-17T11:09:08.693Z,941.33
2023-01-17T11:10:08.648Z,941.27
2023-01-17T11:11:08.700Z,941.26
2023-01-17T11:12:08.655Z,941.21
2023-01-17T11:13:08.660Z,941.19
2023-01-17T11:14:08.577Z,941.17
2023-01-17T11:15:08.662Z,941.15
2023-01-17T11:16:08.589Z,941.14
2023-01-17T11:17:08.624Z,941.12
2023-01-17T11:18:08.554Z,941.11
2023-01-17T11:19:08.555Z,941.11
2023-01-17T11:20:08.524Z,941.08
2023-01-17T11:21:08.543Z,941.03
2023-01-17T11:22:08.500Z,940.98
2023-01-17T11:23:08.553Z,940.99
2023-01-17T11:24:08.459Z,940.97
2023-01-17T11:25:08.462Z,940.94
2023-01-17T11:26:08.475Z,940.88
2023-01-17T11:27:08.443Z,940.91
2023-01-17T11:28:08.411Z,940.90
2023-01-17T11:29:08.486Z,940.93
2023-01-17T11:30:08.382Z,940.88
2023-01-17T11:31:08.470Z,940.83
2023-01-17T11:32:08.406Z,940.80
2023-01-17T11:33:08.356Z,940.74
2023-01-17T11:34:08.326Z,940.75
2023-01-17T11:35:08.383Z,940.71
2023-01-17T11:36:08.347Z,940.72
2023-01-17T11:37:08.335Z,940.70
2023-01-17T11:38:08.302Z,940.70
2023-01-17T11:39:08.312Z,940.63
2023-01-17T11:40:08.261Z,940.63
2023-01-17T11:41:08.266Z,940.65
2023-01-17T11:42:08.297Z,940.58
2023-01-17T11:43:08.242Z,940.58
2023-01-17T11:44:08.221Z,940.62
2023-01-17T11:45:08.207Z,940.58
2023-01-17T11:46:08.245Z,940.56
2023-01-17T11:47:08.199Z,940.54
2023-01-17T11:48:08.184Z,940.52
2023-01-17T11:49:08.158Z,940.45
2023-01-17T11:50:08.137Z,940.46
2023-01-17T11:51:08.127Z,940.43
2023-01-17T11:52:08.101Z,940.37
2023-01-17T11:53:08.105Z,940.35
2023-01-17T11:54:08.122Z,940.39
2023-01-17T11:55:08.083Z,940.35
2023-01-17T11:56:08.063Z,940.35
2023-01-17T11:57:08.052Z,940.34
2023-01-17T11:58:08.021Z,940.30
2023-01-17T11:59:08.063Z,940.32
2023-01-17T12:00:08.011Z,940.26
2023-01-17T12:01:08.068Z,940.25
2023-01-17T12:02:07.990Z,940.21
2023-01-17T12:03:08.032Z,940.20
2023-01-17T12:04:08.016Z,940.19
2023-01-17T12:05:07.978Z,940.10
2023-01-17T12:06:07.917Z,940.10
2023-01-17T12:07:07.968Z,940.06
2023-01-17T12:08:07.897Z,940.02
2023-01-17T12:09:07.946Z,940.02
2023-01-17T12:10:07.891Z,940.01
2023-01-17T12:11:07.886Z,940.05
2023-01-17T12:12:07.893Z,940.02
2023-01-17T12:13:07.873Z,939.96
2023-01-17T12:14:07.824Z,940.01
2023-01-17T12:15:07.843Z,939.99
2023-01-17T12:16:07.798Z,940.02
2023-01-17T12:17:07.820Z,940.01
2023-01-17T12:18:07.781Z,939.99
2023-01-17T12:19:07.833Z,939.97
2023-01-17T12:20:07.789Z,939.98
2023-01-17T12:21:07.748Z,939.98
2023-01-17T12:22:07.730Z,939.94
2023-01-17T12:23:07.748Z,939.97
2023-01-17T12:24:07.699Z,939.90
2023-01-17T12:25:07.738Z,939.90
2023-01-17T12:26:07.699Z,939.90
2023-01-17T12:27:07.658Z,939.84
2023-01-17T12:28:07.667Z,939.85